KC2ASA Weather Reports


Display with metric or nautical units.
time (UTC)temp
F
wind
direction
speed
MPH
gust
MPH
rain 1hr
in
rain 24hr
in
rain mn
in
humidity
%
barometer
mb
20200803091534 69 229 0.0 0.0 0.00 0.03 0.00 97 1013.9
20200803090153 69 230 0.0 1.0 0.00 0.03 0.00 97 1013.7
20200803084613 69 229 0.0 0.0 0.00 0.03 0.00 97 1013.5
20200803083111 69 229 0.0 0.0 0.00 0.03 0.00 97 1013.2
20200803081627 69 229 0.0 0.0 0.00 0.03 0.00 97 1013.1
20200803080034 70 229 0.0 0.0 0.00 0.03 0.00 97 1012.9
20200803074523 70 229 0.0 0.0 0.00 0.03 0.00 97 1012.8
20200803073049 71 229 0.0 0.0 0.00 0.03 0.00 97 1012.6
20200803071602 71 229 0.0 0.0 0.00 0.03 0.00 96 1012.6
20200803070105 72 230 0.0 0.0 0.00 0.03 0.00 96 1012.4
20200803064548 72 229 0.0 0.0 0.00 0.03 0.00 96 1012.3
20200803063023 72 229 0.0 0.0 0.00 0.03 0.00 96 1012.1
20200803061513 73 229 0.0 0.0 0.00 0.03 0.00 95 1012.1
20200803060012 73 229 0.0 0.0 0.00 0.03 0.00 95 1012.1
20200803054536 74 229 0.0 0.0 0.00 0.03 0.00 95 1012.2
20200803053016 74 229 0.0 0.0 0.00 0.03 0.00 94 1012.3
20200803051647 75 229 0.0 0.0 0.00 0.03 0.00 94 1012.2
20200803044626 75 229 0.0 0.0 0.00 0.03 0.00 94 1012.0
20200803043310 75 229 0.0 0.0 0.00 0.03 0.00 94 1011.8
20200803041706 75 229 0.0 0.0 0.00 0.03 0.00 94 1011.9
20200803040203 75 229 0.0 0.0 0.00 0.03 0.00 94 1011.7
20200803034557 76 229 0.0 0.0 0.00 0.03 0.03 93 1011.5
20200803033214 76 230 0.0 0.0 0.00 0.03 0.03 93 1011.6
20200803031613 76 229 0.0 0.0 0.00 0.03 0.03 93 1011.6
20200803030127 77 229 0.0 0.0 0.00 0.03 0.03 93 1011.5
20200803024628 77 230 0.0 1.0 0.00 0.03 0.03 93 1011.5
20200803023132 77 229 0.0 0.0 0.00 0.03 0.03 93 1011.3
20200803021607 77 229 0.0 0.0 0.00 0.03 0.03 93 1011.2
20200803020139 77 229 0.0 0.0 0.00 0.03 0.03 92 1010.9
20200803014625 78 229 0.0 0.0 0.00 0.03 0.03 92 1010.9
20200803013131 78 228 0.0 1.0 0.00 0.03 0.03 91 1011.0
20200803011726 79 228 0.0 0.0 0.00 0.03 0.03 90 1010.8
20200803010121 79 228 0.0 0.0 0.00 0.03 0.03 90 1010.5
20200803004602 80 228 0.0 1.0 0.00 0.03 0.03 89 1010.3
20200803003106 80 228 0.0 1.0 0.00 0.03 0.03 87 1010.0
20200803001649 81 228 0.0 0.0 0.00 0.03 0.03 86 1009.9
20200803000117 82 228 0.0 0.0 0.00 0.03 0.03 83 1009.9
20200802234738 83 228 0.0 0.0 0.00 0.03 0.03 78 1009.7
20200802233219 84 228 0.0 1.0 0.00 0.03 0.03 75 1009.7
20200802231629 84 224 0.0 1.0 0.00 0.03 0.03 75 1009.4
20200802230101 85 193 0.0 1.0 0.00 0.03 0.03 76 1009.3
20200802224718 86 225 0.0 0.0 0.00 0.03 0.03 75 1009.1
20200802223050 87 225 0.0 0.0 0.00 0.03 0.03 72 1009.0
20200802221605 87 225 0.0 1.0 0.00 0.03 0.03 68 1009.2
20200802220048 88 122 0.0 2.0 0.00 0.03 0.03 70 1009.0
20200802214603 88 232 1.0 4.0 0.00 0.03 0.03 68 1009.2
20200802213127 88 235 0.0 2.0 0.00 0.03 0.03 72 1009.2
20200802211558 88 232 1.0 4.0 0.00 0.03 0.03 73 1009.2
20200802210159 89 213 0.0 3.0 0.00 0.03 0.03 73 1009.3
20200802204627 89 225 0.0 4.0 0.00 0.03 0.03 74 1009.4
20200802203038 88 173 0.0 5.0 0.00 0.03 0.03 74 1009.3
20200802201544 88 224 0.0 7.0 0.00 0.03 0.03 76 1009.6
20200802200058 87 224 0.0 2.0 0.00 0.03 0.03 76 1009.7
20200802194538 88 217 0.0 2.0 0.00 0.03 0.03 75 1009.9
20200802193153 87 225 0.0 3.0 0.00 0.03 0.03 77 1009.9
20200802191546 87 219 0.0 5.0 0.00 0.03 0.03 77 1010.3
20200802190026 87 228 0.0 3.0 0.00 0.03 0.03 75 1010.3
20200802184520 87 135 0.0 5.0 0.00 0.03 0.03 77 1010.5
20200802183103 89 221 2.0 5.0 0.00 0.03 0.03 73 1010.6
20200802181518 88 235 0.0 4.0 0.00 0.03 0.03 78 1010.6
20200802180032 87 233 0.0 4.0 0.00 0.03 0.03 79 1010.8
20200802174527 86 228 0.0 2.0 0.00 0.03 0.03 81 1011.0
20200802171503 85 222 0.0 4.0 0.01 0.03 0.03 84 1011.3
20200802170146 83 70 0.0 3.0 0.01 0.03 0.03 89 1011.5
20200802164649 82 67 0.0 5.0 0.01 0.03 0.03 92 1011.9
20200802163114 79 66 0.0 1.0 0.02 0.03 0.03 95 1012.0
20200802161637 78 67 0.0 1.0 0.01 0.02 0.02 94 1012.3
20200802160108 78 65 0.0 1.0 0.02 0.02 0.02 96 1012.3
20200802154702 76 226 0.0 1.0 0.02 0.02 0.02 96 1012.5
20200802153207 76 228 0.0 2.0 0.01 0.01 0.01 96 1012.4
20200802151600 76 228 0.0 1.0 0.01 0.01 0.01 96 1012.6
20200802150047 75 228 0.0 1.0 0.00 0.00 0.00 97 1012.5
20200802144618 75 228 0.0 0.0 0.00 0.00 0.00 97 1012.7
20200802143106 75 228 0.0 0.0 0.00 0.00 0.00 97 1013.0
20200802141532 0 0.0 0.0 0.00 0.00 0.00 1012.9
20200802140104 0 0.0 0.0 0.00 0.00 0.00 1013.1
20200802134606 0 0.0 0.0 0.00 0.00 0.00 1013.1
20200802133045 0 0.0 0.0 0.00 0.00 0.00 1013.2
20200802131518 0 0.0 0.0 0.00 0.00 0.00 1013.4
20200802130021 0 0.0 0.0 0.00 0.00 0.00 1013.2
20200802124503 0 0.0 0.0 0.00 0.00 0.00 1013.2
20200802123146 0 0.0 0.0 0.00 0.00 0.00 1013.1
20200802121623 0 0.0 0.0 0.00 0.00 0.00 1013.1
20200802120045 0 0.0 0.0 0.00 0.00 0.00 1013.5
20200802114634 0 0.0 0.0 0.00 0.00 0.00 1013.7
20200802113028 0 0.0 0.0 0.00 0.00 0.00 1013.8
20200802111539 0 0.0 0.0 0.00 0.00 0.00 1013.6
20200802110106 0 0.0 0.0 0.00 0.00 0.00 1013.7
20200802104547 0 0.0 0.0 0.00 0.00 0.00 1013.9
20200802103013 0 0.0 0.0 0.00 0.00 0.00 1013.9
20200802101504 0 0.0 0.0 0.00 0.00 0.00 1013.9
20200802100112 0 0.0 0.0 0.00 0.00 0.00 1013.8
20200802094630 0 0.0 0.0 0.00 0.00 0.00 1013.6
20200802093105 0 0.0 0.0 0.00 0.00 0.00 1013.7